Weather History for Kake, AK

Change the Weather History Date:

Saturday, June 15, 2013

  Actual Average Record
Temperature  
Mean Temperature 58 °F -  
Max Temperature 71 °F 57 °F 71 °F (2013)
Min Temperature 44 °F 44 °F 39 °F (2000)
Degree Days  
Heating Degree Days 8    
Growing Degree Days 8 (Base 50)    
Moisture  
Dew Point 46 °F    
Average Humidity 67    
Maximum Humidity 87    
Minimum Humidity 43    
Precipitation  
Precipitation 0.00 in - - ()
Sea Level Pressure  
Sea Level Pressure 30.14 in    
Wind  
Wind Speed 5 mph (NNE)    
Max Wind Speed 9 mph    
Max Gust Speed -    
Visibility 10 miles    
Events      
Averages and records for this station are not official NWS values.
T = Trace of Precipitation, MM = Missing Value Source: NWS Daily Summary

Daily Weather History Graph

Daily Weather History Graph

Search for Another Location

Airport:

Trip Planner

Search our weather history database for the weather conditions in past years. The results will help you decide how hot, cold, wet, or windy it might be!

Date:

Astronomy

Jun. 15, 2013 Rise Set
Actual Time 4:01 AM AKDT 9:51 PM AKDT
Civil Twilight 2:53 AM AKDT 10:59 PM AKDT
Nautical Twilight 1:28 AM AKDT 12:23 AM AKDT
Astronomical Twilight Sun does not rise Sun does not rise
Moon 12:02 PM AKDT (6/15) 12:16 AM AKDT (6/15)
Length of Visible Light 20h 05m
Length of Day
17h 50m
Waxing Crescent, 41% of the Moon is Illuminated
Jun 15
Waxing Crescent
Jun 16
First Quarter
Jun 23
Full
Jun 29
Last Quarter
Jul 7
New

Hourly Weather History & Observations

Time (AKDT) Temp. Windchill Dew Point Humidity Pressure Visibility Wind Dir Wind Speed Gust Speed Precip Events Conditions
12:16 AM 48.2 °F - 42.8 °F 82% 30.19 in 10.0 mi East 6.9 mph - N/A   Clear
12:36 AM 46.4 °F 42.4 °F 42.8 °F 87% 30.19 in 10.0 mi ENE 8.1 mph - N/A   Clear
12:56 AM 46.4 °F 42.9 °F 42.8 °F 87% 30.19 in 10.0 mi ENE 6.9 mph - N/A   Clear
1:16 AM 46.4 °F 42.9 °F 42.8 °F 87% 30.19 in 10.0 mi ENE 6.9 mph - N/A   Clear
1:36 AM 46.4 °F 43.5 °F 42.8 °F 87% 30.19 in 10.0 mi ENE 5.8 mph - N/A   Partly Cloudy
1:56 AM 46.4 °F 42.9 °F 42.8 °F 87% 30.19 in 10.0 mi ENE 6.9 mph - N/A   Partly Cloudy
2:16 AM 46.4 °F 42.9 °F 41.0 °F 81% 30.19 in 10.0 mi ENE 6.9 mph - N/A   Clear
2:36 AM 44.6 °F 40.2 °F 41.0 °F 87% 30.19 in 10.0 mi ENE 8.1 mph - N/A   Clear
2:56 AM 44.6 °F 40.2 °F 41.0 °F 87% 30.19 in 10.0 mi ENE 8.1 mph - N/A   Clear
3:16 AM 44.6 °F 40.2 °F 41.0 °F 87% 30.19 in 10.0 mi ENE 8.1 mph - N/A   Clear
3:36 AM 44.6 °F 40.2 °F 41.0 °F 87% 30.19 in 10.0 mi ENE 8.1 mph - N/A   Clear
3:56 AM 44.6 °F 40.7 °F 39.2 °F 81% 30.19 in 10.0 mi ENE 6.9 mph - N/A   Clear
4:16 AM 44.6 °F 40.2 °F 41.0 °F 87% 30.18 in 10.0 mi ENE 8.1 mph - N/A   Clear
4:36 AM 44.6 °F 40.7 °F 41.0 °F 87% 30.18 in 10.0 mi ENE 6.9 mph - N/A   Clear
4:56 AM 44.6 °F - 41.0 °F 87% 30.18 in 10.0 mi Calm Calm - N/A   Clear
5:16 AM 44.6 °F 42.2 °F 41.0 °F 87% 30.18 in 10.0 mi ENE 4.6 mph - N/A   Clear
5:36 AM 46.4 °F 44.3 °F 42.8 °F 87% 30.18 in 10.0 mi ENE 4.6 mph - N/A   Clear
5:56 AM 48.2 °F - 42.8 °F 82% 30.18 in 10.0 mi Calm Calm - N/A   Clear
6:16 AM 50.0 °F - 44.6 °F 82% 30.18 in 10.0 mi Calm Calm - N/A   Clear
6:36 AM 51.8 °F - 44.6 °F 76% 30.18 in 10.0 mi Calm Calm - N/A   Clear
6:56 AM 51.8 °F - 44.6 °F 76% 30.18 in 10.0 mi Calm Calm - N/A   Clear
7:16 AM 53.6 °F - 44.6 °F 72% 30.18 in 10.0 mi Calm Calm - N/A   Clear
7:36 AM 51.8 °F - 44.6 °F 76% 30.18 in 10.0 mi Calm Calm - N/A   Clear
7:56 AM 53.6 °F - 44.6 °F 72% 30.17 in 10.0 mi Calm Calm - N/A   Clear
8:16 AM 53.6 °F - 46.4 °F 77% 30.18 in 10.0 mi Calm Calm - N/A   Clear
8:36 AM 53.6 °F - 44.6 °F 72% 30.17 in 10.0 mi Calm Calm - N/A   Clear
8:56 AM 53.6 °F - 44.6 °F 72% 30.17 in 10.0 mi South 3.5 mph - N/A   Clear
9:16 AM 55.4 °F - 44.6 °F 67% 30.17 in 10.0 mi NE 3.5 mph - N/A   Clear
9:36 AM 55.4 °F - 46.4 °F 72% 30.17 in 10.0 mi WNW 3.5 mph - N/A   Clear
9:56 AM 55.4 °F - 46.4 °F 72% 30.17 in 10.0 mi WSW 4.6 mph - N/A   Clear
10:16 AM 57.2 °F - 46.4 °F 67% 30.17 in 10.0 mi NNE 3.5 mph - N/A   Clear
10:36 AM 55.4 °F - 48.2 °F 77% 30.17 in 10.0 mi West 4.6 mph - N/A   Clear
10:56 AM 57.2 °F - 48.2 °F 72% 30.16 in 10.0 mi WNW 4.6 mph - N/A   Clear
11:16 AM 57.2 °F - 48.2 °F 72% 30.16 in 10.0 mi WSW 5.8 mph - N/A   Clear
11:36 AM 57.2 °F - 48.2 °F 72% 30.16 in 10.0 mi NNE 4.6 mph - N/A   Clear
11:56 AM 57.2 °F - 48.2 °F 72% 30.16 in 10.0 mi WNW 5.8 mph - N/A   Clear
12:16 PM 59.0 °F - 48.2 °F 67% 30.16 in 10.0 mi West 4.6 mph - N/A   Clear
12:36 PM 60.8 °F - 48.2 °F 63% 30.15 in 10.0 mi NW 3.5 mph - N/A   Clear
12:56 PM 62.6 °F - 48.2 °F 59% 30.15 in 10.0 mi North 6.9 mph - N/A   Clear
1:16 PM 64.4 °F - 48.2 °F 56% 30.15 in 10.0 mi NNE 6.9 mph - N/A   Clear
1:36 PM 66.2 °F - 46.4 °F 49% 30.14 in 10.0 mi NW 5.8 mph - N/A   Clear
1:56 PM 66.2 °F - 46.4 °F 49% 30.14 in 10.0 mi North 6.9 mph - N/A   Clear
2:16 PM 66.2 °F - 48.2 °F 52% 30.14 in 10.0 mi North 6.9 mph - N/A   Clear
2:36 PM 66.2 °F - 46.4 °F 49% 30.13 in 10.0 mi North 8.1 mph - N/A   Clear
2:56 PM 66.2 °F - 48.2 °F 52% 30.12 in 10.0 mi North 6.9 mph - N/A   Clear
3:16 PM 68.0 °F - 48.2 °F 49% 30.12 in 10.0 mi West 6.9 mph - N/A   Clear
3:36 PM 66.2 °F - 46.4 °F 49% 30.12 in 10.0 mi North 8.1 mph - N/A   Clear
3:56 PM 68.0 °F - 46.4 °F 46% 30.11 in 10.0 mi NNE 6.9 mph - N/A   Clear
4:16 PM 66.2 °F - 46.4 °F 49% 30.11 in 10.0 mi North 6.9 mph - N/A   Clear
4:36 PM 68.0 °F - 46.4 °F 46% 30.10 in 10.0 mi NNE 8.1 mph - N/A   Clear
4:56 PM 69.8 °F - 48.2 °F 46% 30.10 in 10.0 mi NNE 8.1 mph - N/A   Clear
5:16 PM 69.8 °F - 48.2 °F 46% 30.10 in 10.0 mi North 9.2 mph - N/A   Clear
5:36 PM 69.8 °F - 48.2 °F 46% 30.10 in 10.0 mi North 6.9 mph - N/A   Clear
5:56 PM 69.8 °F - 48.2 °F 46% 30.09 in 10.0 mi NNW 5.8 mph - N/A   Clear
6:16 PM 71.6 °F - 48.2 °F 43% 30.09 in 10.0 mi North 8.1 mph - N/A   Clear
6:36 PM 71.6 °F - 48.2 °F 43% 30.09 in 10.0 mi North 9.2 mph - N/A   Clear
6:56 PM 71.6 °F - 48.2 °F 43% 30.09 in 10.0 mi NNW 5.8 mph - N/A   Clear
7:16 PM 71.6 °F - 48.2 °F 43% 30.09 in 10.0 mi NE 5.8 mph - N/A   Clear
7:36 PM 68.0 °F - 48.2 °F 49% 30.09 in 10.0 mi North 3.5 mph - N/A   Clear
7:56 PM 68.0 °F - 48.2 °F 49% 30.09 in 10.0 mi Calm Calm - N/A   Clear
8:16 PM 69.8 °F - 48.2 °F 46% 30.09 in 10.0 mi Calm Calm - N/A   Clear
8:36 PM 66.2 °F - 50.0 °F 56% 30.09 in 10.0 mi SSE 4.6 mph - N/A   Clear
8:56 PM 64.4 °F - 48.2 °F 56% 30.09 in 10.0 mi Calm Calm - N/A   Clear
9:16 PM 62.6 °F - 48.2 °F 59% 30.09 in 10.0 mi Calm Calm - N/A   Clear
9:36 PM 60.8 °F - 48.2 °F 63% 30.09 in 10.0 mi Calm Calm - N/A   Clear
9:56 PM 60.8 °F - 50.0 °F 68% 30.09 in 10.0 mi Calm Calm - N/A   Clear
10:16 PM 57.2 °F - 50.0 °F 77% 30.09 in 10.0 mi East 4.6 mph - N/A   Clear
10:36 PM 57.2 °F - 48.2 °F 72% 30.10 in 10.0 mi ENE 6.9 mph - N/A   Clear
10:56 PM 55.4 °F - 48.2 °F 77% 30.10 in 10.0 mi East 5.8 mph - N/A   Clear
11:16 PM 57.2 °F - 48.2 °F 72% 30.11 in 10.0 mi ENE 6.9 mph - N/A   Clear
11:36 PM 55.4 °F - 48.2 °F 77% 30.10 in 10.0 mi ENE 3.5 mph - N/A   Clear
11:56 PM 55.4 °F - 46.4 °F 72% 30.10 in 10.0 mi Calm Calm - N/A   Clear